sensor_id;sensor_type;location;lat;lon;timestamp;pressure;altitude;pressure_sealevel;temperature;humidity
67052;BME280;53957;47.222;18.670;2022-10-14T05:04:24;100534.38;;;6.10;100.00
67052;BME280;53957;47.222;18.670;2022-10-14T05:07:48;100535.69;;;6.08;100.00
67052;BME280;53957;47.222;18.670;2022-10-14T05:11:15;100533.06;;;6.30;100.00
67052;BME280;53957;47.222;18.670;2022-10-14T05:14:23;100536.56;;;6.58;100.00
67052;BME280;53957;47.222;18.670;2022-10-14T05:17:33;100533.41;;;6.83;100.00
67052;BME280;53957;47.222;18.670;2022-10-14T05:20:40;100539.19;;;6.36;100.00
67052;BME280;53957;47.222;18.670;2022-10-14T05:24:05;100538.03;;;6.98;100.00
67052;BME280;53957;47.222;18.670;2022-10-14T05:27:29;100537.94;;;7.15;100.00
67052;BME280;53957;47.222;18.670;2022-10-14T05:30:51;100534.94;;;6.79;100.00
67052;BME280;53957;47.222;18.670;2022-10-14T05:34:15;100545.72;;;6.72;100.00
67052;BME280;53957;47.222;18.670;2022-10-14T05:37:22;100540.25;;;6.79;100.00
67052;BME280;53957;47.222;18.670;2022-10-14T05:40:29;100544.66;;;6.96;100.00
67052;BME280;53957;47.222;18.670;2022-10-14T05:43:37;100544.16;;;7.26;100.00
67052;BME280;53957;47.222;18.670;2022-10-14T05:46:40;100546.25;;;7.24;100.00
67052;BME280;53957;47.222;18.670;2022-10-14T05:49:42;100550.19;;;7.54;100.00
67052;BME280;53957;47.222;18.670;2022-10-14T05:52:46;100559.94;;;7.43;100.00
67052;BME280;53957;47.222;18.670;2022-10-14T05:55:49;100554.78;;;7.64;100.00
67052;BME280;53957;47.222;18.670;2022-10-14T05:58:56;100553.47;;;7.66;100.00
67052;BME280;53957;47.222;18.670;2022-10-14T06:02:01;100559.63;;;7.72;100.00
67052;BME280;53957;47.222;18.670;2022-10-14T06:05:04;100564.19;;;7.77;100.00
67052;BME280;53957;47.222;18.670;2022-10-14T06:08:08;100563.09;;;7.78;100.00
67052;BME280;53957;47.222;18.670;2022-10-14T06:11:11;100577.53;;;7.87;100.00
67052;BME280;53957;47.222;18.670;2022-10-14T06:14:14;100582.66;;;7.99;100.00
67052;BME280;53957;47.222;18.670;2022-10-14T06:17:17;100576.53;;;7.98;100.00
67052;BME280;53957;47.222;18.670;2022-10-14T06:20:21;100582.72;;;8.57;100.00
67052;BME280;53957;47.222;18.670;2022-10-14T06:23:24;100582.47;;;8.59;100.00
67052;BME280;53957;47.222;18.670;2022-10-14T06:26:27;100586.97;;;8.10;100.00
67052;BME280;53957;47.222;18.670;2022-10-14T06:29:29;100586.28;;;8.30;100.00
67052;BME280;53957;47.222;18.670;2022-10-14T06:32:33;100581.50;;;8.96;100.00
67052;BME280;53957;47.222;18.670;2022-10-14T06:35:40;100589.28;;;9.13;100.00
67052;BME280;53957;47.222;18.670;2022-10-14T06:38:43;100596.69;;;8.95;100.00
67052;BME280;53957;47.222;18.670;2022-10-14T06:41:46;100594.09;;;9.42;100.00
67052;BME280;53957;47.222;18.670;2022-10-14T06:44:52;100598.34;;;9.53;100.00
67052;BME280;53957;47.222;18.670;2022-10-14T06:47:56;100602.91;;;9.73;100.00
67052;BME280;53957;47.222;18.670;2022-10-14T06:51:00;100601.28;;;9.82;100.00
67052;BME280;53957;47.222;18.670;2022-10-14T06:54:03;100605.25;;;10.06;100.00
67052;BME280;53957;47.222;18.670;2022-10-14T06:57:06;100606.87;;;9.96;100.00
67052;BME280;53957;47.222;18.670;2022-10-14T07:00:09;100596.22;;;9.96;100.00
67052;BME280;53957;47.222;18.670;2022-10-14T07:03:12;100601.53;;;10.02;100.00
67052;BME280;53957;47.222;18.670;2022-10-14T07:06:15;100605.81;;;10.03;100.00
67052;BME280;53957;47.222;18.670;2022-10-14T07:09:18;100610.31;;;10.02;100.00
67052;BME280;53957;47.222;18.670;2022-10-14T07:12:20;100611.13;;;9.92;100.00
67052;BME280;53957;47.222;18.670;2022-10-14T07:15:24;100607.34;;;10.24;100.00
67052;BME280;53957;47.222;18.670;2022-10-14T07:18:27;100610.19;;;10.64;100.00
67052;BME280;53957;47.222;18.670;2022-10-14T07:21:29;100604.50;;;10.81;100.00
67052;BME280;53957;47.222;18.670;2022-10-14T07:24:32;100611.28;;;11.13;100.00
67052;BME280;53957;47.222;18.670;2022-10-14T07:27:35;100598.47;;;11.15;100.00
67052;BME280;53957;47.222;18.670;2022-10-14T07:30:39;100598.09;;;11.32;100.00
67052;BME280;53957;47.222;18.670;2022-10-14T07:33:41;100593.88;;;11.55;100.00
67052;BME280;53957;47.222;18.670;2022-10-14T07:36:44;100597.88;;;11.87;100.00
67052;BME280;53957;47.222;18.670;2022-10-14T07:39:47;100604.38;;;12.11;100.00
67052;BME280;53957;47.222;18.670;2022-10-14T07:42:51;100592.50;;;12.22;100.00
67052;BME280;53957;47.222;18.670;2022-10-14T07:45:54;100597.84;;;12.46;100.00
67052;BME280;53957;47.222;18.670;2022-10-14T07:49:09;100600.22;;;12.72;100.00
67052;BME280;53957;47.222;18.670;2022-10-14T07:52:12;100601.38;;;12.85;100.00
67052;BME280;53957;47.222;18.670;2022-10-14T07:55:17;100603.75;;;12.86;100.00
67052;BME280;53957;47.222;18.670;2022-10-14T07:58:21;100598.28;;;13.16;100.00
67052;BME280;53957;47.222;18.670;2022-10-14T08:01:25;100604.88;;;13.24;100.00
67052;BME280;53957;47.222;18.670;2022-10-14T08:04:28;100599.72;;;13.79;100.00
67052;BME280;53957;47.222;18.670;2022-10-14T08:07:31;100611.78;;;13.63;100.00
67052;BME280;53957;47.222;18.670;2022-10-14T08:10:35;100600.84;;;13.92;100.00
67052;BME280;53957;47.222;18.670;2022-10-14T08:13:39;100598.50;;;13.72;100.00
67052;BME280;53957;47.222;18.670;2022-10-14T08:16:47;100592.41;;;13.99;100.00
67052;BME280;53957;47.222;18.670;2022-10-14T08:19:57;100591.44;;;14.09;98.44
67052;BME280;53957;47.222;18.670;2022-10-14T08:23:10;100586.69;;;14.33;97.94
67052;BME280;53957;47.222;18.670;2022-10-14T08:26:30;100585.84;;;14.61;98.00
67052;BME280;53957;47.222;18.670;2022-10-14T08:29:34;100580.50;;;14.61;97.84
67052;BME280;53957;47.222;18.670;2022-10-14T08:32:37;100584.47;;;14.49;100.00
67052;BME280;53957;47.222;18.670;2022-10-14T08:39:26;100579.13;;;15.45;93.08
67052;BME280;53957;47.222;18.670;2022-10-14T08:42:42;100591.44;;;15.01;94.69
67052;BME280;53957;47.222;18.670;2022-10-14T08:46:23;100588.97;;;15.50;94.84
67052;BME280;53957;47.222;18.670;2022-10-14T08:50:22;100590.13;;;15.58;91.14
67052;BME280;53957;47.222;18.670;2022-10-14T08:53:25;100584.97;;;15.93;91.05
67052;BME280;53957;47.222;18.670;2022-10-14T08:56:39;100581.06;;;15.76;91.78
67052;BME280;53957;47.222;18.670;2022-10-14T09:00:29;100578.09;;;15.78;94.79
67052;BME280;53957;47.222;18.670;2022-10-14T09:03:34;100570.09;;;15.41;93.09
67052;BME280;53957;47.222;18.670;2022-10-14T09:06:39;100569.16;;;16.40;89.89
67052;BME280;53957;47.222;18.670;2022-10-14T09:09:48;100566.28;;;16.37;87.58
67052;BME280;53957;47.222;18.670;2022-10-14T09:12:55;100566.16;;;15.70;92.11
67052;BME280;53957;47.222;18.670;2022-10-14T09:16:30;100561.97;;;16.27;91.52
67052;BME280;53957;47.222;18.670;2022-10-14T09:23:11;100563.66;;;16.54;88.42
67052;BME280;53957;47.222;18.670;2022-10-14T09:26:18;100567.16;;;16.90;89.72
67052;BME280;53957;47.222;18.670;2022-10-14T09:29:25;100568.06;;;17.64;88.07
67052;BME280;53957;47.222;18.670;2022-10-14T09:32:53;100564.22;;;17.65;83.03
67052;BME280;53957;47.222;18.670;2022-10-14T09:35:57;100558.00;;;17.26;85.71
67052;BME280;53957;47.222;18.670;2022-10-14T09:39:20;100564.50;;;17.81;82.86
67052;BME280;53957;47.222;18.670;2022-10-14T09:42:48;100560.44;;;17.66;85.53
67052;BME280;53957;47.222;18.670;2022-10-14T09:45:56;100561.16;;;17.84;84.21
67052;BME280;53957;47.222;18.670;2022-10-14T09:49:37;100563.19;;;17.96;86.12
67052;BME280;53957;47.222;18.670;2022-10-14T09:53:04;100573.63;;;18.66;83.92
67052;BME280;53957;47.222;18.670;2022-10-14T09:56:34;100560.66;;;17.91;83.33
67052;BME280;53957;47.222;18.670;2022-10-14T10:00:00;100565.22;;;18.68;82.79
67052;BME280;53957;47.222;18.670;2022-10-14T10:03:06;100561.47;;;17.92;82.37
67052;BME280;53957;47.222;18.670;2022-10-14T10:06:13;100561.31;;;18.27;81.61
67052;BME280;53957;47.222;18.670;2022-10-14T10:09:17;100555.16;;;18.47;83.01
67052;BME280;53957;47.222;18.670;2022-10-14T10:12:30;100559.88;;;18.80;78.47
67052;BME280;53957;47.222;18.670;2022-10-14T10:15:59;100564.41;;;18.89;80.44
67052;BME280;53957;47.222;18.670;2022-10-14T10:19:41;100562.59;;;17.82;83.19
67052;BME280;53957;47.222;18.670;2022-10-14T10:22:46;100555.56;;;18.79;79.75
67052;BME280;53957;47.222;18.670;2022-10-14T10:25:57;100551.22;;;18.66;80.01
67052;BME280;53957;47.222;18.670;2022-10-14T10:29:55;100543.94;;;18.37;83.46
67052;BME280;53957;47.222;18.670;2022-10-14T10:33:28;100538.81;;;18.86;79.05
67052;BME280;53957;47.222;18.670;2022-10-14T10:40:37;100535.06;;;18.78;78.09
67052;BME280;53957;47.222;18.670;2022-10-14T10:54:10;100523.94;;;18.59;84.81
67052;BME280;53957;47.222;18.670;2022-10-14T11:01:18;100510.63;;;18.32;81.80
67052;BME280;53957;47.222;18.670;2022-10-14T11:04:56;100516.94;;;18.37;80.26
67052;BME280;53957;47.222;18.670;2022-10-14T11:08:34;100516.44;;;18.86;79.93
67052;BME280;53957;47.222;18.670;2022-10-14T11:12:34;100508.59;;;19.26;78.62
67052;BME280;53957;47.222;18.670;2022-10-14T11:16:14;100511.66;;;18.82;77.89
67052;BME280;53957;47.222;18.670;2022-10-14T11:20:07;100503.97;;;19.27;77.85
67052;BME280;53957;47.222;18.670;2022-10-14T11:23:50;100498.34;;;18.14;81.15
67052;BME280;53957;47.222;18.670;2022-10-14T11:27:22;100495.31;;;18.79;80.03
67052;BME280;53957;47.222;18.670;2022-10-14T11:45:05;100477.63;;;18.48;82.01
67052;BME280;53957;47.222;18.670;2022-10-14T11:48:46;100477.00;;;19.06;78.87
67052;BME280;53957;47.222;18.670;2022-10-14T11:52:06;100479.25;;;18.82;78.35
67052;BME280;53957;47.222;18.670;2022-10-14T11:55:38;100474.37;;;18.76;77.49
67052;BME280;53957;47.222;18.670;2022-10-14T11:59:25;100476.25;;;18.42;79.11
67052;BME280;53957;47.222;18.670;2022-10-14T12:06:20;100471.66;;;18.42;77.38
67052;BME280;53957;47.222;18.670;2022-10-14T12:12:59;100462.69;;;17.69;79.94
67052;BME280;53957;47.222;18.670;2022-10-14T12:16:18;100460.37;;;18.19;80.10
67052;BME280;53957;47.222;18.670;2022-10-14T12:19:27;100456.09;;;18.39;79.09
67052;BME280;53957;47.222;18.670;2022-10-14T12:22:33;100448.31;;;18.16;80.81
67052;BME280;53957;47.222;18.670;2022-10-14T12:29:49;100447.41;;;17.74;89.43
67052;BME280;53957;47.222;18.670;2022-10-14T12:33:10;100440.41;;;17.43;90.62
67052;BME280;53957;47.222;18.670;2022-10-14T12:36:30;100440.53;;;17.55;91.53
67052;BME280;53957;47.222;18.670;2022-10-14T12:43:24;100439.38;;;17.65;86.95
67052;BME280;53957;47.222;18.670;2022-10-14T12:46:50;100427.47;;;17.36;94.33
67052;BME280;53957;47.222;18.670;2022-10-14T12:53:24;100428.84;;;17.42;97.08
67052;BME280;53957;47.222;18.670;2022-10-14T12:56:43;100416.25;;;17.85;90.01
67052;BME280;53957;47.222;18.670;2022-10-14T13:14:31;100414.97;;;18.88;82.41
67052;BME280;53957;47.222;18.670;2022-10-14T13:17:56;100411.62;;;18.91;81.81
67052;BME280;53957;47.222;18.670;2022-10-14T13:21:00;100410.53;;;19.05;80.76
67052;BME280;53957;47.222;18.670;2022-10-14T13:24:26;100404.00;;;19.18;77.97
67052;BME280;53957;47.222;18.670;2022-10-14T13:28:09;100404.09;;;18.97;78.87
67052;BME280;53957;47.222;18.670;2022-10-14T13:31:43;100410.75;;;18.66;84.57
67052;BME280;53957;47.222;18.670;2022-10-14T13:35:45;100403.88;;;18.69;81.63
67052;BME280;53957;47.222;18.670;2022-10-14T13:38:43;100413.00;;;18.43;84.09
67052;BME280;53957;47.222;18.670;2022-10-14T13:42:14;100407.22;;;18.65;81.35
67052;BME280;53957;47.222;18.670;2022-10-14T13:45:22;100406.53;;;18.56;84.13
67052;BME280;53957;47.222;18.670;2022-10-14T13:48:55;100410.34;;;18.55;82.92
67052;BME280;53957;47.222;18.670;2022-10-14T13:52:39;100411.09;;;18.43;81.80
67052;BME280;53957;47.222;18.670;2022-10-14T13:55:49;100404.06;;;18.09;82.67
67052;BME280;53957;47.222;18.670;2022-10-14T13:59:20;100398.41;;;18.23;84.14
67052;BME280;53957;47.222;18.670;2022-10-14T14:02:57;100395.38;;;18.24;87.04
67052;BME280;53957;47.222;18.670;2022-10-14T14:06:26;100395.09;;;18.17;86.66
67052;BME280;53957;47.222;18.670;2022-10-14T14:09:51;100390.22;;;17.89;93.67
67052;BME280;53957;47.222;18.670;2022-10-14T14:13:16;100385.44;;;17.65;91.10
67052;BME280;53957;47.222;18.670;2022-10-14T14:16:25;100380.81;;;17.65;86.86
67052;BME280;53957;47.222;18.670;2022-10-14T14:19:50;100381.50;;;17.83;87.64
67052;BME280;53957;47.222;18.670;2022-10-14T14:22:57;100386.03;;;18.00;83.94
67052;BME280;53957;47.222;18.670;2022-10-14T14:26:00;100387.09;;;18.08;81.22
67052;BME280;53957;47.222;18.670;2022-10-14T14:29:44;100383.78;;;18.45;79.58
67052;BME280;53957;47.222;18.670;2022-10-14T14:32:52;100380.13;;;18.41;79.72
67052;BME280;53957;47.222;18.670;2022-10-14T14:36:17;100381.66;;;18.29;80.01
67052;BME280;53957;47.222;18.670;2022-10-14T14:39:41;100378.91;;;18.17;78.87
67052;BME280;53957;47.222;18.670;2022-10-14T14:43:04;100380.09;;;18.49;76.73
67052;BME280;53957;47.222;18.670;2022-10-14T14:46:37;100371.91;;;18.37;78.81
67052;BME280;53957;47.222;18.670;2022-10-14T14:49:41;100376.91;;;18.47;76.89
67052;BME280;53957;47.222;18.670;2022-10-14T14:52:48;100377.56;;;18.44;77.61
67052;BME280;53957;47.222;18.670;2022-10-14T14:56:05;100375.19;;;18.43;75.56
67052;BME280;53957;47.222;18.670;2022-10-14T14:59:41;100373.91;;;18.28;76.86
67052;BME280;53957;47.222;18.670;2022-10-14T15:03:04;100368.72;;;18.23;76.33
67052;BME280;53957;47.222;18.670;2022-10-14T15:06:14;100367.94;;;17.92;77.98
67052;BME280;53957;47.222;18.670;2022-10-14T15:09:25;100367.59;;;18.02;77.92
67052;BME280;53957;47.222;18.670;2022-10-14T15:12:35;100367.03;;;17.88;79.05
67052;BME280;53957;47.222;18.670;2022-10-14T15:15:51;100364.78;;;17.69;79.69
67052;BME280;53957;47.222;18.670;2022-10-14T15:22:42;100366.34;;;17.10;88.42
67052;BME280;53957;47.222;18.670;2022-10-14T15:25:58;100366.94;;;16.51;93.92
67052;BME280;53957;47.222;18.670;2022-10-14T15:32:13;100375.78;;;15.90;100.00
67052;BME280;53957;47.222;18.670;2022-10-14T15:35:18;100371.75;;;15.61;100.00
67052;BME280;53957;47.222;18.670;2022-10-14T15:38:22;100368.56;;;15.50;100.00
67052;BME280;53957;47.222;18.670;2022-10-14T15:41:46;100361.94;;;15.56;100.00
67052;BME280;53957;47.222;18.670;2022-10-14T15:45:09;100368.25;;;15.11;100.00
67052;BME280;53957;47.222;18.670;2022-10-14T15:48:23;100372.56;;;14.90;100.00
67052;BME280;53957;47.222;18.670;2022-10-14T15:51:28;100372.66;;;14.76;100.00
67052;BME280;53957;47.222;18.670;2022-10-14T15:54:33;100366.34;;;14.58;100.00
67052;BME280;53957;47.222;18.670;2022-10-14T15:57:37;100374.78;;;14.42;100.00
67052;BME280;53957;47.222;18.670;2022-10-14T16:00:41;100375.59;;;14.29;100.00
67052;BME280;53957;47.222;18.670;2022-10-14T16:03:48;100374.53;;;14.16;100.00
67052;BME280;53957;47.222;18.670;2022-10-14T16:07:14;100380.25;;;14.00;100.00
67052;BME280;53957;47.222;18.670;2022-10-14T16:10:38;100389.44;;;13.85;100.00
67052;BME280;53957;47.222;18.670;2022-10-14T16:14:01;100399.87;;;13.73;100.00
67052;BME280;53957;47.222;18.670;2022-10-14T16:17:44;100391.62;;;13.56;100.00
67052;BME280;53957;47.222;18.670;2022-10-14T16:21:15;100394.28;;;13.42;100.00
67052;BME280;53957;47.222;18.670;2022-10-14T16:29:26;100397.28;;;13.07;100.00
67052;BME280;53957;47.222;18.670;2022-10-14T16:32:52;100399.94;;;12.93;100.00
67052;BME280;53957;47.222;18.670;2022-10-14T16:35:56;100408.94;;;12.83;100.00
67052;BME280;53957;47.222;18.670;2022-10-14T16:39:02;100409.69;;;12.70;100.00
67052;BME280;53957;47.222;18.670;2022-10-14T16:42:28;100406.87;;;12.61;100.00
67052;BME280;53957;47.222;18.670;2022-10-14T16:45:52;100420.13;;;12.52;100.00
67052;BME280;53957;47.222;18.670;2022-10-14T16:49:15;100415.12;;;12.46;100.00
67052;BME280;53957;47.222;18.670;2022-10-14T16:52:39;100414.00;;;12.33;100.00
67052;BME280;53957;47.222;18.670;2022-10-14T16:56:20;100409.00;;;12.26;100.00
67052;BME280;53957;47.222;18.670;2022-10-14T16:59:43;100409.66;;;12.18;100.00
67052;BME280;53957;47.222;18.670;2022-10-14T17:02:47;100411.59;;;12.12;100.00
67052;BME280;53957;47.222;18.670;2022-10-14T17:05:56;100411.50;;;11.98;100.00
67052;BME280;53957;47.222;18.670;2022-10-14T17:09:00;100416.84;;;11.98;100.00
67052;BME280;53957;47.222;18.670;2022-10-14T17:12:05;100407.34;;;11.87;100.00
67052;BME280;53957;47.222;18.670;2022-10-14T17:15:33;100407.97;;;11.79;100.00
67052;BME280;53957;47.222;18.670;2022-10-14T17:18:58;100413.66;;;11.72;100.00
67052;BME280;53957;47.222;18.670;2022-10-14T17:22:22;100407.13;;;11.59;100.00
67052;BME280;53957;47.222;18.670;2022-10-14T17:25:36;100409.84;;;11.54;100.00
67052;BME280;53957;47.222;18.670;2022-10-14T17:29:18;100410.75;;;11.44;100.00
67052;BME280;53957;47.222;18.670;2022-10-14T17:32:27;100414.78;;;11.41;100.00
67052;BME280;53957;47.222;18.670;2022-10-14T17:35:58;100410.88;;;11.34;100.00
67052;BME280;53957;47.222;18.670;2022-10-14T17:39:30;100405.38;;;11.20;100.00
67052;BME280;53957;47.222;18.670;2022-10-14T17:42:45;100419.59;;;11.15;100.00
67052;BME280;53957;47.222;18.670;2022-10-14T17:46:10;100419.16;;;11.03;100.00
67052;BME280;53957;47.222;18.670;2022-10-14T17:49:33;100422.44;;;10.94;100.00
67052;BME280;53957;47.222;18.670;2022-10-14T17:52:40;100424.34;;;10.89;100.00
67052;BME280;53957;47.222;18.670;2022-10-14T17:55:45;100414.78;;;10.83;100.00
67052;BME280;53957;47.222;18.670;2022-10-14T17:58:53;100416.66;;;10.82;100.00
67052;BME280;53957;47.222;18.670;2022-10-14T18:01:57;100417.72;;;10.81;100.00
67052;BME280;53957;47.222;18.670;2022-10-14T18:05:16;100413.66;;;10.89;100.00
67052;BME280;53957;47.222;18.670;2022-10-14T18:08:40;100419.91;;;11.08;100.00
67052;BME280;53957;47.222;18.670;2022-10-14T18:11:48;100422.34;;;11.05;100.00
67052;BME280;53957;47.222;18.670;2022-10-14T18:15:11;100418.97;;;11.23;100.00
67052;BME280;53957;47.222;18.670;2022-10-14T18:18:19;100412.94;;;11.12;100.00
67052;BME280;53957;47.222;18.670;2022-10-14T18:21:43;100413.06;;;11.26;100.00
67052;BME280;53957;47.222;18.670;2022-10-14T18:24:47;100422.63;;;11.33;100.00
67052;BME280;53957;47.222;18.670;2022-10-14T18:27:50;100416.94;;;11.15;100.00
67052;BME280;53957;47.222;18.670;2022-10-14T18:30:55;100419.28;;;10.87;100.00
67052;BME280;53957;47.222;18.670;2022-10-14T18:34:06;100423.94;;;10.71;100.00
67052;BME280;53957;47.222;18.670;2022-10-14T18:37:11;100420.34;;;10.52;100.00
67052;BME280;53957;47.222;18.670;2022-10-14T18:40:22;100421.19;;;10.42;100.00
67052;BME280;53957;47.222;18.670;2022-10-14T18:44:07;100432.09;;;10.45;100.00
67052;BME280;53957;47.222;18.670;2022-10-14T18:47:29;100423.47;;;10.14;100.00
